sensor_id;sensor_type;location;lat;lon;timestamp;P1;durP1;ratioP1;P2;durP2;ratioP2
45382;SDS011;42455;51.660;5.824;2022-10-14T00:00:09;36.0;;;32.0;;
45382;SDS011;42455;51.660;5.824;2022-10-14T00:05:13;35.0;;;31.0;;
45382;SDS011;42455;51.660;5.824;2022-10-14T00:10:20;35.0;;;31.0;;
45382;SDS011;42455;51.660;5.824;2022-10-14T00:15:26;34.0;;;30.0;;
45382;SDS011;42455;51.660;5.824;2022-10-14T00:20:32;34.0;;;30.5;;
45382;SDS011;42455;51.660;5.824;2022-10-14T00:25:38;34.0;;;30.0;;
45382;SDS011;42455;51.660;5.824;2022-10-14T00:30:51;37.0;;;31.0;;
45382;SDS011;42455;51.660;5.824;2022-10-14T00:35:52;37.0;;;30.0;;
45382;SDS011;42455;51.660;5.824;2022-10-14T00:40:57;35.0;;;30.0;;
45382;SDS011;42455;51.660;5.824;2022-10-14T00:46:03;33.0;;;29.0;;
45382;SDS011;42455;51.660;5.824;2022-10-14T00:51:09;32.0;;;28.5;;
45382;SDS011;42455;51.660;5.824;2022-10-14T00:56:16;32.0;;;28.0;;
45382;SDS011;42455;51.660;5.824;2022-10-14T01:01:22;31.0;;;28.0;;
45382;SDS011;42455;51.660;5.824;2022-10-14T01:06:29;32.0;;;28.0;;
45382;SDS011;42455;51.660;5.824;2022-10-14T01:11:50;31.0;;;28.0;;
45382;SDS011;42455;51.660;5.824;2022-10-14T01:16:50;29.0;;;26.0;;
45382;SDS011;42455;51.660;5.824;2022-10-14T01:22:01;29.5;;;26.0;;
45382;SDS011;42455;51.660;5.824;2022-10-14T01:27:17;28.0;;;25.0;;
45382;SDS011;42455;51.660;5.824;2022-10-14T01:32:01;28.0;;;25.0;;
45382;SDS011;42455;51.660;5.824;2022-10-14T01:37:07;27.5;;;25.0;;
45382;SDS011;42455;51.660;5.824;2022-10-14T01:42:15;28.0;;;25.0;;
45382;SDS011;42455;51.660;5.824;2022-10-14T01:47:18;27.0;;;24.0;;
45382;SDS011;42455;51.660;5.824;2022-10-14T01:52:30;26.0;;;23.0;;
45382;SDS011;42455;51.660;5.824;2022-10-14T01:57:30;25.0;;;23.0;;
45382;SDS011;42455;51.660;5.824;2022-10-14T02:02:35;26.0;;;24.0;;
45382;SDS011;42455;51.660;5.824;2022-10-14T02:07:41;26.0;;;23.0;;
45382;SDS011;42455;51.660;5.824;2022-10-14T02:13:16;26.0;;;23.0;;
45382;SDS011;42455;51.660;5.824;2022-10-14T02:17:54;25.0;;;23.0;;
45382;SDS011;42455;51.660;5.824;2022-10-14T02:23:03;26.0;;;23.0;;
45382;SDS011;42455;51.660;5.824;2022-10-14T02:28:11;25.0;;;23.0;;
45382;SDS011;42455;51.660;5.824;2022-10-14T02:33:12;25.0;;;22.5;;
45382;SDS011;42455;51.660;5.824;2022-10-14T02:38:18;25.0;;;22.0;;
45382;SDS011;42455;51.660;5.824;2022-10-14T02:43:24;25.0;;;22.0;;
45382;SDS011;42455;51.660;5.824;2022-10-14T02:48:30;24.0;;;21.0;;
45382;SDS011;42455;51.660;5.824;2022-10-14T02:53:36;25.0;;;22.0;;
45382;SDS011;42455;51.660;5.824;2022-10-14T02:58:43;24.0;;;22.0;;
45382;SDS011;42455;51.660;5.824;2022-10-14T03:03:49;24.5;;;22.0;;
45382;SDS011;42455;51.660;5.824;2022-10-14T03:08:55;24.0;;;22.0;;
45382;SDS011;42455;51.660;5.824;2022-10-14T03:14:01;23.0;;;21.0;;
45382;SDS011;42455;51.660;5.824;2022-10-14T03:19:08;23.0;;;20.0;;
45382;SDS011;42455;51.660;5.824;2022-10-14T03:24:14;23.0;;;21.0;;
45382;SDS011;42455;51.660;5.824;2022-10-14T03:29:20;24.0;;;21.0;;
45382;SDS011;42455;51.660;5.824;2022-10-14T03:34:26;23.0;;;21.0;;
45382;SDS011;42455;51.660;5.824;2022-10-14T03:39:32;24.0;;;21.0;;
45382;SDS011;42455;51.660;5.824;2022-10-14T03:44:39;23.5;;;21.0;;
45382;SDS011;42455;51.660;5.824;2022-10-14T03:49:44;22.0;;;20.0;;
45382;SDS011;42455;51.660;5.824;2022-10-14T03:54:50;23.0;;;21.0;;
45382;SDS011;42455;51.660;5.824;2022-10-14T03:59:56;23.0;;;21.0;;
45382;SDS011;42455;51.660;5.824;2022-10-14T04:05:02;23.0;;;21.0;;
45382;SDS011;42455;51.660;5.824;2022-10-14T04:10:08;23.0;;;21.0;;
45382;SDS011;42455;51.660;5.824;2022-10-14T04:15:14;23.0;;;21.0;;
45382;SDS011;42455;51.660;5.824;2022-10-14T04:20:20;23.0;;;21.0;;
45382;SDS011;42455;51.660;5.824;2022-10-14T04:25:26;24.0;;;22.0;;
45382;SDS011;42455;51.660;5.824;2022-10-14T04:30:33;24.5;;;22.0;;
45382;SDS011;42455;51.660;5.824;2022-10-14T04:35:39;24.0;;;22.0;;
45382;SDS011;42455;51.660;5.824;2022-10-14T04:40:45;25.0;;;22.0;;
45382;SDS011;42455;51.660;5.824;2022-10-14T04:45:51;24.0;;;22.0;;
45382;SDS011;42455;51.660;5.824;2022-10-14T04:50:58;26.0;;;23.0;;
45382;SDS011;42455;51.660;5.824;2022-10-14T04:56:04;24.0;;;22.0;;
45382;SDS011;42455;51.660;5.824;2022-10-14T05:01:10;26.0;;;23.0;;
45382;SDS011;42455;51.660;5.824;2022-10-14T05:06:16;27.0;;;24.0;;
45382;SDS011;42455;51.660;5.824;2022-10-14T05:11:22;28.0;;;25.0;;
45382;SDS011;42455;51.660;5.824;2022-10-14T05:16:29;29.0;;;25.5;;
45382;SDS011;42455;51.660;5.824;2022-10-14T05:21:35;29.0;;;25.5;;
45382;SDS011;42455;51.660;5.824;2022-10-14T05:26:41;28.0;;;25.0;;
45382;SDS011;42455;51.660;5.824;2022-10-14T05:31:47;29.0;;;25.0;;
45382;SDS011;42455;51.660;5.824;2022-10-14T05:36:52;30.0;;;25.0;;
45382;SDS011;42455;51.660;5.824;2022-10-14T05:41:59;28.0;;;25.0;;
45382;SDS011;42455;51.660;5.824;2022-10-14T05:47:05;29.0;;;25.0;;
45382;SDS011;42455;51.660;5.824;2022-10-14T05:52:10;29.0;;;26.0;;
45382;SDS011;42455;51.660;5.824;2022-10-14T05:57:16;29.0;;;26.0;;
45382;SDS011;42455;51.660;5.824;2022-10-14T06:07:29;27.0;;;24.0;;
45382;SDS011;42455;51.660;5.824;2022-10-14T06:12:35;26.5;;;24.0;;
45382;SDS011;42455;51.660;5.824;2022-10-14T06:17:41;26.0;;;23.0;;
45382;SDS011;42455;51.660;5.824;2022-10-14T06:22:47;26.0;;;24.0;;
45382;SDS011;42455;51.660;5.824;2022-10-14T06:27:54;26.0;;;23.0;;
45382;SDS011;42455;51.660;5.824;2022-10-14T06:33:00;26.0;;;23.0;;
45382;SDS011;42455;51.660;5.824;2022-10-14T06:38:06;25.0;;;22.0;;
45382;SDS011;42455;51.660;5.824;2022-10-14T06:43:12;24.0;;;21.5;;
45382;SDS011;42455;51.660;5.824;2022-10-14T06:48:18;22.0;;;20.0;;
45382;SDS011;42455;51.660;5.824;2022-10-14T06:53:25;21.0;;;19.0;;
45382;SDS011;42455;51.660;5.824;2022-10-14T06:58:31;20.0;;;18.0;;
45382;SDS011;42455;51.660;5.824;2022-10-14T07:03:37;19.0;;;17.0;;
45382;SDS011;42455;51.660;5.824;2022-10-14T07:08:43;17.0;;;16.0;;
45382;SDS011;42455;51.660;5.824;2022-10-14T07:13:49;17.0;;;16.0;;
45382;SDS011;42455;51.660;5.824;2022-10-14T07:18:56;17.0;;;15.0;;
45382;SDS011;42455;51.660;5.824;2022-10-14T07:24:02;17.0;;;15.0;;
45382;SDS011;42455;51.660;5.824;2022-10-14T07:29:08;16.5;;;15.0;;
45382;SDS011;42455;51.660;5.824;2022-10-14T07:39:21;15.0;;;14.0;;
45382;SDS011;42455;51.660;5.824;2022-10-14T07:44:27;13.0;;;12.0;;
45382;SDS011;42455;51.660;5.824;2022-10-14T07:49:32;13.0;;;12.0;;
45382;SDS011;42455;51.660;5.824;2022-10-14T07:54:38;13.0;;;12.0;;
45382;SDS011;42455;51.660;5.824;2022-10-14T07:59:44;13.0;;;11.0;;
45382;SDS011;42455;51.660;5.824;2022-10-14T08:04:51;12.0;;;11.0;;
45382;SDS011;42455;51.660;5.824;2022-10-14T08:09:57;11.0;;;10.0;;
45382;SDS011;42455;51.660;5.824;2022-10-14T08:15:03;12.0;;;11.0;;
45382;SDS011;42455;51.660;5.824;2022-10-14T08:20:09;11.0;;;10.0;;
45382;SDS011;42455;51.660;5.824;2022-10-14T08:25:15;10.0;;;9.0;;
45382;SDS011;42455;51.660;5.824;2022-10-14T08:30:22;10.0;;;9.0;;
45382;SDS011;42455;51.660;5.824;2022-10-14T08:35:28;10.0;;;9.0;;
45382;SDS011;42455;51.660;5.824;2022-10-14T08:40:41;9.0;;;8.0;;
45382;SDS011;42455;51.660;5.824;2022-10-14T08:45:44;9.0;;;8.0;;
45382;SDS011;42455;51.660;5.824;2022-10-14T08:50:47;9.0;;;8.0;;
45382;SDS011;42455;51.660;5.824;2022-10-14T08:55:53;9.0;;;8.0;;
45382;SDS011;42455;51.660;5.824;2022-10-14T09:01:00;9.0;;;8.0;;
45382;SDS011;42455;51.660;5.824;2022-10-14T09:06:06;9.0;;;8.0;;
45382;SDS011;42455;51.660;5.824;2022-10-14T09:11:17;9.0;;;8.0;;
45382;SDS011;42455;51.660;5.824;2022-10-14T09:16:19;9.0;;;8.0;;
45382;SDS011;42455;51.660;5.824;2022-10-14T09:21:30;8.0;;;8.0;;
45382;SDS011;42455;51.660;5.824;2022-10-14T09:26:36;9.0;;;8.0;;
45382;SDS011;42455;51.660;5.824;2022-10-14T09:31:36;9.0;;;8.0;;
45382;SDS011;42455;51.660;5.824;2022-10-14T09:36:41;9.0;;;8.0;;
45382;SDS011;42455;51.660;5.824;2022-10-14T09:41:48;8.0;;;7.0;;
45382;SDS011;42455;51.660;5.824;2022-10-14T09:46:54;8.0;;;8.0;;
45382;SDS011;42455;51.660;5.824;2022-10-14T09:51:59;8.0;;;7.0;;
45382;SDS011;42455;51.660;5.824;2022-10-14T09:57:05;7.0;;;7.0;;
45382;SDS011;42455;51.660;5.824;2022-10-14T10:02:21;7.0;;;6.0;;
45382;SDS011;42455;51.660;5.824;2022-10-14T10:07:32;7.0;;;6.0;;
45382;SDS011;42455;51.660;5.824;2022-10-14T10:12:26;7.0;;;6.0;;
45382;SDS011;42455;51.660;5.824;2022-10-14T10:17:29;7.0;;;6.0;;
45382;SDS011;42455;51.660;5.824;2022-10-14T10:22:34;7.0;;;6.0;;
45382;SDS011;42455;51.660;5.824;2022-10-14T10:27:43;7.0;;;6.0;;
45382;SDS011;42455;51.660;5.824;2022-10-14T10:33:06;7.0;;;7.0;;
45382;SDS011;42455;51.660;5.824;2022-10-14T10:38:03;7.0;;;6.0;;
45382;SDS011;42455;51.660;5.824;2022-10-14T10:43:27;7.0;;;7.0;;
45382;SDS011;42455;51.660;5.824;2022-10-14T10:48:07;7.0;;;6.0;;
45382;SDS011;42455;51.660;5.824;2022-10-14T10:53:31;7.0;;;6.0;;
45382;SDS011;42455;51.660;5.824;2022-10-14T10:58:40;7.0;;;6.0;;
45382;SDS011;42455;51.660;5.824;2022-10-14T11:03:35;7.0;;;7.0;;
45382;SDS011;42455;51.660;5.824;2022-10-14T11:08:42;7.0;;;6.0;;
45382;SDS011;42455;51.660;5.824;2022-10-14T11:13:41;7.0;;;7.0;;
45382;SDS011;42455;51.660;5.824;2022-10-14T11:19:14;7.0;;;6.5;;
45382;SDS011;42455;51.660;5.824;2022-10-14T11:24:01;7.0;;;7.0;;
45382;SDS011;42455;51.660;5.824;2022-10-14T11:29:12;8.0;;;7.0;;
45382;SDS011;42455;51.660;5.824;2022-10-14T11:34:40;8.0;;;6.0;;
45382;SDS011;42455;51.660;5.824;2022-10-14T11:39:53;6.0;;;6.0;;
45382;SDS011;42455;51.660;5.824;2022-10-14T11:44:27;6.0;;;5.0;;
45382;SDS011;42455;51.660;5.824;2022-10-14T11:49:28;5.0;;;5.0;;
45382;SDS011;42455;51.660;5.824;2022-10-14T11:54:36;5.0;;;5.0;;
45382;SDS011;42455;51.660;5.824;2022-10-14T11:59:40;5.0;;;5.0;;
45382;SDS011;42455;51.660;5.824;2022-10-14T12:04:42;5.0;;;4.0;;
45382;SDS011;42455;51.660;5.824;2022-10-14T12:09:52;5.0;;;4.0;;
45382;SDS011;42455;51.660;5.824;2022-10-14T12:14:53;5.0;;;4.0;;
45382;SDS011;42455;51.660;5.824;2022-10-14T12:19:57;5.0;;;4.0;;
45382;SDS011;42455;51.660;5.824;2022-10-14T12:25:02;5.0;;;5.0;;
45382;SDS011;42455;51.660;5.824;2022-10-14T12:35:47;6.0;;;5.0;;
45382;SDS011;42455;51.660;5.824;2022-10-14T12:40:23;6.0;;;6.0;;
45382;SDS011;42455;51.660;5.824;2022-10-14T12:45:27;7.0;;;6.0;;
45382;SDS011;42455;51.660;5.824;2022-10-14T12:50:35;7.0;;;6.0;;
45382;SDS011;42455;51.660;5.824;2022-10-14T12:55:48;8.0;;;7.0;;
45382;SDS011;42455;51.660;5.824;2022-10-14T13:00:55;7.0;;;7.0;;
45382;SDS011;42455;51.660;5.824;2022-10-14T13:05:51;7.0;;;7.0;;
45382;SDS011;42455;51.660;5.824;2022-10-14T13:11:10;8.0;;;7.0;;
45382;SDS011;42455;51.660;5.824;2022-10-14T13:16:04;8.0;;;7.0;;
45382;SDS011;42455;51.660;5.824;2022-10-14T13:21:10;8.0;;;7.0;;
45382;SDS011;42455;51.660;5.824;2022-10-14T13:26:21;8.0;;;8.0;;
45382;SDS011;42455;51.660;5.824;2022-10-14T13:31:38;8.0;;;7.0;;
45382;SDS011;42455;51.660;5.824;2022-10-14T13:36:29;8.0;;;7.0;;
45382;SDS011;42455;51.660;5.824;2022-10-14T13:41:35;8.0;;;7.0;;
45382;SDS011;42455;51.660;5.824;2022-10-14T13:46:41;8.0;;;7.5;;
45382;SDS011;42455;51.660;5.824;2022-10-14T13:51:58;8.0;;;7.0;;
45382;SDS011;42455;51.660;5.824;2022-10-14T13:56:54;8.0;;;8.0;;
45382;SDS011;42455;51.660;5.824;2022-10-14T14:02:00;9.0;;;8.0;;
45382;SDS011;42455;51.660;5.824;2022-10-14T14:07:04;8.0;;;8.0;;
45382;SDS011;42455;51.660;5.824;2022-10-14T14:12:11;8.0;;;8.0;;
45382;SDS011;42455;51.660;5.824;2022-10-14T14:17:17;8.0;;;7.0;;
45382;SDS011;42455;51.660;5.824;2022-10-14T14:22:25;5.0;;;5.0;;
45382;SDS011;42455;51.660;5.824;2022-10-14T14:27:28;7.0;;;6.0;;
45382;SDS011;42455;51.660;5.824;2022-10-14T14:32:35;6.0;;;6.0;;
45382;SDS011;42455;51.660;5.824;2022-10-14T14:37:41;8.0;;;7.0;;
45382;SDS011;42455;51.660;5.824;2022-10-14T14:42:48;10.0;;;9.0;;
45382;SDS011;42455;51.660;5.824;2022-10-14T14:47:54;11.0;;;10.0;;
45382;SDS011;42455;51.660;5.824;2022-10-14T14:53:02;9.0;;;9.0;;
45382;SDS011;42455;51.660;5.824;2022-10-14T14:58:12;11.0;;;10.0;;
45382;SDS011;42455;51.660;5.824;2022-10-14T15:03:12;11.0;;;10.0;;
45382;SDS011;42455;51.660;5.824;2022-10-14T15:08:20;11.0;;;10.0;;
45382;SDS011;42455;51.660;5.824;2022-10-14T15:13:31;12.0;;;11.0;;
45382;SDS011;42455;51.660;5.824;2022-10-14T15:18:31;13.0;;;12.0;;
45382;SDS011;42455;51.660;5.824;2022-10-14T15:23:58;14.0;;;13.0;;
45382;SDS011;42455;51.660;5.824;2022-10-14T15:28:43;14.0;;;13.0;;
45382;SDS011;42455;51.660;5.824;2022-10-14T15:33:49;15.0;;;13.0;;
45382;SDS011;42455;51.660;5.824;2022-10-14T15:38:55;15.0;;;14.0;;
45382;SDS011;42455;51.660;5.824;2022-10-14T15:44:02;15.0;;;14.0;;
45382;SDS011;42455;51.660;5.824;2022-10-14T15:49:10;16.0;;;14.0;;
45382;SDS011;42455;51.660;5.824;2022-10-14T15:54:15;15.0;;;14.0;;
45382;SDS011;42455;51.660;5.824;2022-10-14T15:59:18;16.0;;;14.0;;
45382;SDS011;42455;51.660;5.824;2022-10-14T16:04:24;16.0;;;14.0;;
45382;SDS011;42455;51.660;5.824;2022-10-14T16:09:31;17.0;;;15.0;;
45382;SDS011;42455;51.660;5.824;2022-10-14T16:14:37;17.0;;;16.0;;
45382;SDS011;42455;51.660;5.824;2022-10-14T16:19:43;17.0;;;16.0;;
45382;SDS011;42455;51.660;5.824;2022-10-14T16:24:49;18.0;;;16.0;;
45382;SDS011;42455;51.660;5.824;2022-10-14T16:29:55;18.0;;;17.0;;
45382;SDS011;42455;51.660;5.824;2022-10-14T16:35:02;19.0;;;17.0;;
45382;SDS011;42455;51.660;5.824;2022-10-14T16:40:08;20.0;;;18.0;;
45382;SDS011;42455;51.660;5.824;2022-10-14T16:45:14;19.0;;;17.0;;
45382;SDS011;42455;51.660;5.824;2022-10-14T16:50:20;19.0;;;17.0;;
45382;SDS011;42455;51.660;5.824;2022-10-14T16:55:27;19.0;;;18.0;;
45382;SDS011;42455;51.660;5.824;2022-10-14T17:00:33;20.0;;;18.0;;
45382;SDS011;42455;51.660;5.824;2022-10-14T17:05:39;20.0;;;18.0;;
45382;SDS011;42455;51.660;5.824;2022-10-14T17:10:45;22.0;;;20.0;;
45382;SDS011;42455;51.660;5.824;2022-10-14T17:15:56;23.0;;;21.0;;
45382;SDS011;42455;51.660;5.824;2022-10-14T17:20:58;28.0;;;26.0;;
45382;SDS011;42455;51.660;5.824;2022-10-14T17:26:04;25.0;;;22.0;;
45382;SDS011;42455;51.660;5.824;2022-10-14T17:31:14;25.0;;;23.0;;
45382;SDS011;42455;51.660;5.824;2022-10-14T17:36:17;24.0;;;22.0;;
45382;SDS011;42455;51.660;5.824;2022-10-14T17:41:25;24.0;;;22.0;;
45382;SDS011;42455;51.660;5.824;2022-10-14T17:46:28;25.0;;;22.0;;
45382;SDS011;42455;51.660;5.824;2022-10-14T17:51:35;25.0;;;22.0;;
45382;SDS011;42455;51.660;5.824;2022-10-14T17:56:39;24.0;;;22.0;;
45382;SDS011;42455;51.660;5.824;2022-10-14T18:01:45;25.0;;;23.0;;
45382;SDS011;42455;51.660;5.824;2022-10-14T18:06:51;26.0;;;23.0;;
45382;SDS011;42455;51.660;5.824;2022-10-14T18:11:58;26.0;;;23.0;;
45382;SDS011;42455;51.660;5.824;2022-10-14T18:17:04;28.5;;;26.0;;
45382;SDS011;42455;51.660;5.824;2022-10-14T18:22:10;28.0;;;25.0;;
45382;SDS011;42455;51.660;5.824;2022-10-14T18:27:16;28.0;;;25.0;;
45382;SDS011;42455;51.660;5.824;2022-10-14T18:32:23;28.0;;;25.0;;
45382;SDS011;42455;51.660;5.824;2022-10-14T18:37:29;26.0;;;24.0;;
45382;SDS011;42455;51.660;5.824;2022-10-14T18:42:35;27.0;;;24.0;;
45382;SDS011;42455;51.660;5.824;2022-10-14T18:47:41;26.5;;;24.0;;
45382;SDS011;42455;51.660;5.824;2022-10-14T18:52:47;26.0;;;24.0;;
45382;SDS011;42455;51.660;5.824;2022-10-14T18:57:54;26.0;;;23.0;;
45382;SDS011;42455;51.660;5.824;2022-10-14T19:03:00;28.0;;;25.0;;
45382;SDS011;42455;51.660;5.824;2022-10-14T19:08:06;31.0;;;28.0;;
45382;SDS011;42455;51.660;5.824;2022-10-14T19:13:12;30.0;;;27.0;;
45382;SDS011;42455;51.660;5.824;2022-10-14T19:18:18;29.0;;;26.0;;
45382;SDS011;42455;51.660;5.824;2022-10-14T19:23:25;29.0;;;26.0;;
45382;SDS011;42455;51.660;5.824;2022-10-14T19:28:31;28.0;;;25.0;;
45382;SDS011;42455;51.660;5.824;2022-10-14T19:33:37;27.0;;;25.0;;
45382;SDS011;42455;51.660;5.824;2022-10-14T19:38:44;27.0;;;24.0;;
45382;SDS011;42455;51.660;5.824;2022-10-14T19:43:48;27.0;;;25.0;;
45382;SDS011;42455;51.660;5.824;2022-10-14T19:48:55;22.0;;;20.0;;
45382;SDS011;42455;51.660;5.824;2022-10-14T19:54:00;26.0;;;23.0;;
45382;SDS011;42455;51.660;5.824;2022-10-14T19:59:06;25.0;;;22.0;;
45382;SDS011;42455;51.660;5.824;2022-10-14T20:04:12;25.0;;;23.0;;
45382;SDS011;42455;51.660;5.824;2022-10-14T20:09:19;28.0;;;25.0;;
45382;SDS011;42455;51.660;5.824;2022-10-14T20:14:25;29.0;;;25.5;;
45382;SDS011;42455;51.660;5.824;2022-10-14T20:19:31;25.0;;;22.0;;
45382;SDS011;42455;51.660;5.824;2022-10-14T20:24:37;25.0;;;22.0;;
45382;SDS011;42455;51.660;5.824;2022-10-14T20:29:43;25.0;;;22.0;;
45382;SDS011;42455;51.660;5.824;2022-10-14T20:34:50;26.0;;;23.0;;
45382;SDS011;42455;51.660;5.824;2022-10-14T20:39:56;24.0;;;21.0;;
45382;SDS011;42455;51.660;5.824;2022-10-14T20:45:02;22.0;;;20.0;;
45382;SDS011;42455;51.660;5.824;2022-10-14T20:50:08;23.0;;;21.0;;
45382;SDS011;42455;51.660;5.824;2022-10-14T20:55:15;23.0;;;20.0;;
45382;SDS011;42455;51.660;5.824;2022-10-14T21:00:21;21.0;;;19.0;;
45382;SDS011;42455;51.660;5.824;2022-10-14T21:05:27;21.0;;;18.0;;
45382;SDS011;42455;51.660;5.824;2022-10-14T21:10:33;22.0;;;19.0;;
45382;SDS011;42455;51.660;5.824;2022-10-14T21:15:39;21.0;;;19.0;;
45382;SDS011;42455;51.660;5.824;2022-10-14T21:20:46;22.0;;;19.0;;
45382;SDS011;42455;51.660;5.824;2022-10-14T21:25:53;23.0;;;21.0;;
45382;SDS011;42455;51.660;5.824;2022-10-14T21:30:58;22.0;;;20.0;;
45382;SDS011;42455;51.660;5.824;2022-10-14T21:36:04;24.0;;;21.0;;
45382;SDS011;42455;51.660;5.824;2022-10-14T21:41:09;21.0;;;19.0;;
45382;SDS011;42455;51.660;5.824;2022-10-14T21:46:16;22.5;;;20.0;;
45382;SDS011;42455;51.660;5.824;2022-10-14T21:51:21;20.0;;;18.0;;
45382;SDS011;42455;51.660;5.824;2022-10-14T21:56:27;20.0;;;18.0;;
45382;SDS011;42455;51.660;5.824;2022-10-14T22:01:33;19.0;;;17.0;;
45382;SDS011;42455;51.660;5.824;2022-10-14T22:06:39;21.0;;;18.0;;
45382;SDS011;42455;51.660;5.824;2022-10-14T22:11:46;18.5;;;17.0;;
45382;SDS011;42455;51.660;5.824;2022-10-14T22:16:52;17.5;;;16.0;;
45382;SDS011;42455;51.660;5.824;2022-10-14T22:21:58;20.0;;;18.0;;
45382;SDS011;42455;51.660;5.824;2022-10-14T22:27:04;22.0;;;20.0;;
45382;SDS011;42455;51.660;5.824;2022-10-14T22:32:11;21.0;;;19.0;;
45382;SDS011;42455;51.660;5.824;2022-10-14T22:37:17;23.0;;;20.0;;
45382;SDS011;42455;51.660;5.824;2022-10-14T22:42:22;24.0;;;21.0;;
45382;SDS011;42455;51.660;5.824;2022-10-14T22:47:28;24.0;;;21.0;;
45382;SDS011;42455;51.660;5.824;2022-10-14T22:52:34;24.0;;;21.0;;
45382;SDS011;42455;51.660;5.824;2022-10-14T22:57:41;23.0;;;20.0;;
45382;SDS011;42455;51.660;5.824;2022-10-14T23:02:47;22.0;;;19.5;;
45382;SDS011;42455;51.660;5.824;2022-10-14T23:07:53;22.0;;;19.0;;
45382;SDS011;42455;51.660;5.824;2022-10-14T23:13:00;22.0;;;20.0;;
45382;SDS011;42455;51.660;5.824;2022-10-14T23:18:06;22.0;;;20.0;;
45382;SDS011;42455;51.660;5.824;2022-10-14T23:23:12;20.0;;;18.0;;
45382;SDS011;42455;51.660;5.824;2022-10-14T23:28:18;16.0;;;14.0;;
45382;SDS011;42455;51.660;5.824;2022-10-14T23:33:25;17.0;;;15.0;;
45382;SDS011;42455;51.660;5.824;2022-10-14T23:38:30;14.5;;;13.0;;
45382;SDS011;42455;51.660;5.824;2022-10-14T23:43:36;14.0;;;13.0;;
45382;SDS011;42455;51.660;5.824;2022-10-14T23:48:41;15.0;;;13.0;;
45382;SDS011;42455;51.660;5.824;2022-10-14T23:53:47;15.0;;;14.0;;
45382;SDS011;42455;51.660;5.824;2022-10-14T23:58:53;17.0;;;15.0;;
